Red Valley, AZ

2:57 AM MDT on October 23, 2014 (GMT -0600)
Cortez Municipal | Change Station
CLOSE
Current Station
Airport
Location: Cortez,
Elevation: 5915 ft
Nearby Weather Stations

Elev 5915 ft 37.31 °N, 108.63 °W | Updated 1 hour ago

Clear
Clear
40 °F
Feels Like 37 °F
N
5
Wind Variable Wind from ENE

Today
High -- | Low -- °F
--% Chance of Precip.
Yesterday
High -- | Low -- °F
Precip. -- in
7:32 AM 6:30 PM
Waning Crescent, 0% visible
Pressure 30.11 in
Visibility 10.0 miles
Clouds Clear
Windchill 37 °F
Dew Point 34 °F
Humidity 79%
Rainfall 0.00 in
Snow Depth Not available.
UV 0 out of 12
Pollen 2.10 out of 12
Air Quality Not available.
Flu Activity No Activity
METAR KCEZ 230753Z AUTO 06004KT 10SM CLR 04/01 A3024 RMK AO2 SLP196 T00440011

More Conditions Fewer Conditions

Pressure 30.11 in
Visibility 10.0 miles
Clouds Clear
Windchill 37 °F
Dew Point 34 °F
Humidity 79%
Rainfall 0.00 in
Snow Depth Not available.
UV 0 out of 12
Pollen 2.10 out of 12
Air Quality Not available.
Flu Activity No Activity
METAR KCEZ 230753Z AUTO 06004KT 10SM CLR 04/01 A3024 RMK AO2 SLP196 T00440011

More Conditions Fewer Conditions

10-Day Weather Forecast

Almanac

Astronomy

Oct. 23, 2014 Rise Set
Actual Time 7:32 AM MDT 6:30 PM MDT
Civil Twilight 7:06 AM MDT 6:56 PM MDT
Nautical Twilight 6:35 AM MDT 7:27 PM MDT
Astronomical Twilight 6:05 AM MDT 7:57 PM MDT
Moon 7:15 AM MDT 6:34 PM MDT
Length of Visible Light 11h 50m
Length of Day
10h 58m
Tomorrow will be 2m 9s shorter.
Waning Crescent, 0% of the Moon is Illuminated
Today
Waning Crescent
Oct 23
New
Oct 30
First Quarter
Nov 6
Full
Nov 14
Last Quarter

Today's Extremes

State Highs State Lows

Community

WunderPhotos

Upload Photos

1,764,197 photos uploaded!

Nearby

Snow Depth

Station Depth Elevation
Snowslide Canyon 0 in 9730 ft
Mormon Mountain 0 in 7500 ft
Happy Jack 0 in 7630 ft
Promontory 0 in 7930 ft
Baldy 2 in 9125 ft

Earthquake Activity

City Distance Mag. Time & Date
No recent earthquake activity has been reported nearby.
Minimum magnitude displayed is 2.5.

Coastal Water Temperatures

Place Temperature
No Stations Reporting

Nearby Weather Stations